Time;durP1;ratioP1;P1;durP2;ratioP2;P2;SDS_P1;SDS_P2;PMS_P1;PMS_P2;Temp;Humidity;BMP_temperature;BMP_pressure;BME280_temperature;BME280_humidity;BME280_pressure;Samples;Min_cycle;Max_cycle;Signal;HPM_P1;HPM_P2
2021/03/04 00:01:47;;;;;;;31.65;19.17;;;7.30;99.90;;;;;;4993244;28;20072;-69
2021/03/04 00:04:12;;;;;;;31.17;19.77;;;7.30;99.90;;;;;;4994340;28;20033;-69
2021/03/04 00:06:38;;;;;;;28.80;18.15;;;7.30;99.90;;;;;;4995069;28;20026;-69
2021/03/04 00:09:06;;;;;;;34.25;19.73;;;7.30;99.90;;;;;;4995134;28;20087;-69
2021/03/04 00:11:31;;;;;;;35.65;20.40;;;7.30;99.90;;;;;;4996090;28;20385;-69
2021/03/04 00:13:57;;;;;;;40.65;19.77;;;7.20;99.90;;;;;;4993439;28;20019;-69
2021/03/04 00:16:22;;;;;;;35.28;19.13;;;7.30;99.90;;;;;;4993964;28;20065;-70
2021/03/04 00:18:48;;;;;;;32.10;20.05;;;7.40;99.90;;;;;;5013355;28;20029;-69
2021/03/04 00:21:14;;;;;;;38.28;20.65;;;7.30;99.90;;;;;;5013333;28;20381;-69
2021/03/04 00:23:39;;;;;;;32.90;19.75;;;7.30;99.90;;;;;;5012388;28;20092;-69
2021/03/04 00:26:05;;;;;;;33.85;19.20;;;7.30;99.90;;;;;;5012757;28;20026;-69
2021/03/04 00:28:30;;;;;;;32.45;19.10;;;7.20;99.90;;;;;;5013276;28;20025;-69
2021/03/04 00:30:56;;;;;;;31.15;18.58;;;7.30;99.90;;;;;;5012644;28;20022;-69
2021/03/04 00:33:21;;;;;;;36.90;20.40;;;7.20;99.90;;;;;;5013051;28;20412;-70
2021/03/04 00:35:47;;;;;;;30.23;19.17;;;7.30;99.90;;;;;;5013220;28;20041;-69
2021/03/04 00:38:13;;;;;;;30.70;17.90;;;7.10;99.90;;;;;;5013219;28;20416;-68
2021/03/04 00:40:38;;;;;;;25.48;17.88;;;7.00;99.90;;;;;;5013574;28;20026;-69
2021/03/04 00:43:04;;;;;;;27.08;18.60;;;7.00;99.90;;;;;;5011983;28;20388;-69
2021/03/04 00:45:30;;;;;;;33.22;19.25;;;7.00;99.90;;;;;;5013212;28;20033;-69
2021/03/04 00:47:56;;;;;;;33.22;19.13;;;7.00;99.90;;;;;;5011913;28;20018;-69
2021/03/04 00:50:21;;;;;;;32.00;19.60;;;7.00;99.90;;;;;;5012945;28;20026;-68
2021/03/04 00:52:50;;;;;;;29.30;19.50;;;7.00;99.90;;;;;;5012554;28;20032;-69
2021/03/04 00:55:15;;;;;;;32.92;20.70;;;7.00;99.90;;;;;;5013061;28;20022;-68
2021/03/04 00:57:41;;;;;;;34.40;20.52;;;7.10;99.90;;;;;;5012927;28;20037;-69
2021/03/04 01:00:08;;;;;;;34.78;20.95;;;7.10;99.90;;;;;;5012472;28;20026;-69
2021/03/04 01:02:34;;;;;;;32.75;21.13;;;7.10;99.90;;;;;;5012015;28;20034;-69
2021/03/04 01:05:00;;;;;;;34.78;21.25;;;7.10;99.90;;;;;;5011833;28;20034;-69
2021/03/04 01:07:26;;;;;;;30.95;19.25;;;7.10;99.90;;;;;;5012107;28;20034;-69
2021/03/04 01:09:51;;;;;;;33.47;20.63;;;7.10;99.90;;;;;;5012260;28;20449;-68
2021/03/04 01:12:17;;;;;;;38.45;20.27;;;7.00;99.90;;;;;;5012281;28;20040;-69
2021/03/04 01:14:42;;;;;;;34.72;19.63;;;7.00;99.90;;;;;;5011787;28;20088;-68
2021/03/04 01:17:11;;;;;;;32.22;19.20;;;7.00;99.90;;;;;;5011934;28;20408;-69
2021/03/04 01:19:36;;;;;;;33.45;19.40;;;6.90;99.90;;;;;;5010872;28;20025;-69
2021/03/04 01:22:02;;;;;;;34.08;21.35;;;6.90;99.90;;;;;;5011772;28;20049;-69
2021/03/04 01:24:28;;;;;;;38.55;20.88;;;7.00;99.90;;;;;;5011507;28;20050;-69
2021/03/04 01:26:53;;;;;;;35.08;21.05;;;7.00;99.90;;;;;;5011641;28;20112;-69
2021/03/04 01:29:19;;;;;;;38.00;21.35;;;6.90;99.90;;;;;;5011845;28;20032;-69
2021/03/04 01:31:44;;;;;;;36.00;20.10;;;6.90;99.90;;;;;;5011748;28;20026;-70
2021/03/04 01:34:10;;;;;;;38.55;21.10;;;6.90;99.90;;;;;;5011474;28;20049;-70
2021/03/04 01:36:35;;;;;;;32.78;20.67;;;6.90;99.90;;;;;;5011389;28;20036;-68
2021/03/04 01:39:01;;;;;;;34.10;19.17;;;6.90;99.90;;;;;;5012862;28;20105;-69
2021/03/04 01:41:27;;;;;;;37.10;20.48;;;6.90;99.90;;;;;;5013389;28;20034;-69
2021/03/04 01:43:53;;;;;;;34.28;19.65;;;6.80;99.90;;;;;;5011435;28;20105;-69
2021/03/04 01:46:19;;;;;;;31.80;19.27;;;6.70;99.90;;;;;;5011602;28;20030;-69
2021/03/04 01:48:44;;;;;;;41.50;20.98;;;6.80;99.90;;;;;;5010854;28;20439;-68
2021/03/04 01:51:10;;;;;;;31.23;20.55;;;6.70;99.90;;;;;;5011700;28;20026;-68
2021/03/04 01:53:36;;;;;;;31.42;19.27;;;6.80;99.90;;;;;;5011190;28;20030;-68
2021/03/04 01:56:01;;;;;;;33.40;20.02;;;6.80;99.90;;;;;;5011488;28;20041;-70
2021/03/04 01:58:27;;;;;;;28.33;19.05;;;6.70;99.90;;;;;;5011547;28;20113;-68
2021/03/04 02:00:53;;;;;;;34.20;19.92;;;6.70;99.90;;;;;;5011795;28;20018;-67
2021/03/04 02:03:22;;;;;;;32.75;18.55;;;6.70;99.90;;;;;;5012038;28;20036;-69
2021/03/04 02:05:48;;;;;;;31.00;18.98;;;6.70;99.90;;;;;;5015262;28;20026;-68
2021/03/04 02:08:35;;;;;;;32.97;18.80;;;6.60;99.90;;;;;;5014223;28;20627;-68
2021/03/04 02:11:16;;;;;;;33.03;19.75;;;6.50;99.90;;;;;;5014019;28;20026;-68
2021/03/04 02:13:56;;;;;;;31.38;19.27;;;6.40;99.90;;;;;;5014636;28;20042;-70
2021/03/04 02:16:45;;;;;;;34.55;19.73;;;6.40;99.90;;;;;;5014980;28;20030;-69
2021/03/04 02:19:40;;;;;;;35.40;20.13;;;6.40;99.90;;;;;;4976255;28;20038;-69
2021/03/04 02:22:15;;;;;;;32.83;18.55;;;6.50;99.90;;;;;;4976013;28;20049;-68
2021/03/04 02:24:59;;;;;;;36.53;19.67;;;6.50;99.90;;;;;;4975654;28;20031;-68
2021/03/04 02:27:28;;;;;;;32.75;19.88;;;6.60;99.90;;;;;;4975988;28;20429;-70
2021/03/04 02:30:03;;;;;;;34.28;20.00;;;6.60;99.90;;;;;;4974494;28;20023;-69
2021/03/04 02:32:33;;;;;;;40.30;20.70;;;6.60;99.90;;;;;;4975723;28;20085;-68
2021/03/04 02:35:10;;;;;;;36.33;20.23;;;6.60;99.90;;;;;;4975235;28;20098;-69
2021/03/04 02:37:41;;;;;;;29.35;17.63;;;6.60;99.90;;;;;;4975702;28;20063;-68
2021/03/04 02:40:10;;;;;;;32.72;19.88;;;6.60;99.90;;;;;;4975626;28;20022;-70
2021/03/04 02:42:39;;;;;;;29.50;19.20;;;6.50;99.90;;;;;;4975647;28;20210;-68
2021/03/04 02:45:07;;;;;;;34.33;19.27;;;6.60;99.90;;;;;;4975390;28;20099;-68
2021/03/04 02:47:34;;;;;;;36.88;19.50;;;6.60;99.90;;;;;;4982446;28;20033;-70
2021/03/04 02:50:01;;;;;;;32.40;19.63;;;6.60;99.90;;;;;;4994869;28;20042;-69
2021/03/04 02:52:27;;;;;;;36.78;20.48;;;6.70;99.90;;;;;;4995129;28;20028;-70
2021/03/04 02:54:53;;;;;;;32.13;19.15;;;6.70;99.90;;;;;;4994124;28;20089;-70
2021/03/04 02:57:21;;;;;;;35.97;20.00;;;6.70;99.90;;;;;;4994787;28;20030;-69
2021/03/04 02:59:48;;;;;;;36.20;20.17;;;6.70;99.90;;;;;;4994712;28;20030;-68
2021/03/04 03:02:15;;;;;;;27.77;18.63;;;6.60;99.90;;;;;;4994469;28;20033;-69
2021/03/04 03:04:42;;;;;;;27.02;18.17;;;6.60;99.90;;;;;;4993898;28;20034;-69
2021/03/04 03:07:10;;;;;;;29.52;19.00;;;6.60;99.90;;;;;;4994454;28;20080;-69
2021/03/04 03:09:37;;;;;;;32.42;19.38;;;6.50;99.90;;;;;;4994531;28;20018;-69
2021/03/04 03:12:03;;;;;;;31.60;18.85;;;6.60;99.90;;;;;;4994520;28;20026;-69
2021/03/04 03:14:30;;;;;;;33.15;18.92;;;6.60;99.90;;;;;;4992519;28;20027;-68
2021/03/04 03:16:58;;;;;;;32.25;19.73;;;6.60;99.90;;;;;;4997402;28;20034;-69
2021/03/04 03:19:24;;;;;;;31.02;18.95;;;6.60;99.90;;;;;;5014021;28;20509;-69
2021/03/04 03:21:50;;;;;;;30.23;18.50;;;6.50;99.90;;;;;;5015838;28;20396;-69
2021/03/04 03:24:15;;;;;;;32.42;19.23;;;6.50;99.90;;;;;;5016479;28;20029;-69
2021/03/04 03:26:41;;;;;;;30.80;19.02;;;6.40;99.90;;;;;;5016217;28;20524;-69
2021/03/04 03:29:07;;;;;;;29.27;19.27;;;6.40;99.90;;;;;;5016295;28;20543;-69
2021/03/04 03:31:35;;;;;;;34.92;18.83;;;6.30;99.90;;;;;;5016576;28;20018;-69
2021/03/04 03:34:01;;;;;;;32.10;18.65;;;6.30;99.90;;;;;;5009255;28;20038;-68
2021/03/04 03:36:27;;;;;;;32.92;18.77;;;6.30;99.90;;;;;;4993980;28;20032;-69
2021/03/04 03:38:54;;;;;;;27.77;18.02;;;6.30;99.90;;;;;;4994079;28;20018;-68
2021/03/04 03:41:22;;;;;;;30.25;18.58;;;6.30;99.90;;;;;;4994023;28;20331;-68
2021/03/04 03:43:49;;;;;;;31.10;17.75;;;6.20;99.90;;;;;;4993142;28;20033;-69
2021/03/04 03:46:15;;;;;;;26.40;18.40;;;6.10;99.90;;;;;;4993836;28;20397;-68
2021/03/04 03:48:43;;;;;;;28.38;17.88;;;6.20;99.90;;;;;;4993351;28;20473;-68
2021/03/04 03:51:09;;;;;;;32.83;19.02;;;6.10;99.90;;;;;;4993740;28;20080;-69
2021/03/04 03:53:35;;;;;;;29.90;18.55;;;6.10;99.90;;;;;;4993339;28;20105;-69
2021/03/04 03:56:01;;;;;;;30.95;18.85;;;6.10;99.90;;;;;;4993491;28;20533;-70
2021/03/04 03:58:28;;;;;;;35.90;18.80;;;6.10;99.90;;;;;;4993864;28;20054;-70
2021/03/04 04:00:55;;;;;;;28.40;18.08;;;6.00;99.90;;;;;;5005862;28;20106;-69
2021/03/04 04:03:25;;;;;;;29.02;17.42;;;6.00;99.90;;;;;;4998637;28;20030;-70
2021/03/04 04:05:51;;;;;;;30.02;17.98;;;6.00;99.90;;;;;;4993088;28;20033;-68
2021/03/04 04:08:21;;;;;;;31.30;19.00;;;5.90;99.90;;;;;;4993511;28;20476;-68
2021/03/04 04:10:47;;;;;;;28.90;18.98;;;5.90;99.90;;;;;;4993357;28;20625;-70
2021/03/04 04:13:16;;;;;;;31.45;19.48;;;5.80;99.90;;;;;;4993129;28;20029;-68
2021/03/04 04:15:42;;;;;;;31.10;18.67;;;5.90;99.90;;;;;;5001261;28;20037;-70
2021/03/04 04:18:09;;;;;;;27.75;18.25;;;5.80;99.90;;;;;;5008881;28;20101;-71
2021/03/04 04:20:36;;;;;;;30.67;18.17;;;5.90;99.90;;;;;;5012825;28;20022;-70
2021/03/04 04:23:02;;;;;;;29.77;18.63;;;5.90;99.90;;;;;;5008906;28;20493;-70
2021/03/04 04:25:28;;;;;;;31.85;18.50;;;5.80;99.90;;;;;;5012469;28;20026;-70
2021/03/04 04:27:56;;;;;;;32.10;18.45;;;5.90;99.90;;;;;;5012452;28;20028;-69
2021/03/04 04:30:25;;;;;;;28.40;18.13;;;5.80;99.90;;;;;;5012583;28;20464;-70
2021/03/04 04:32:52;;;;;;;29.60;19.10;;;5.80;99.90;;;;;;5011895;28;20030;-70
2021/03/04 04:35:18;;;;;;;29.17;18.15;;;5.80;99.90;;;;;;5012419;28;20045;-68
2021/03/04 04:37:44;;;;;;;42.20;18.35;;;5.90;99.90;;;;;;5012386;28;20500;-70
2021/03/04 04:40:10;;;;;;;26.70;17.30;;;5.80;99.90;;;;;;4999015;28;20117;-70
2021/03/04 04:42:37;;;;;;;30.20;18.80;;;5.90;99.90;;;;;;4992657;28;20138;-70
2021/03/04 04:45:05;;;;;;;30.83;19.38;;;5.90;99.90;;;;;;4992494;28;20081;-70
2021/03/04 04:47:30;;;;;;;29.00;17.90;;;5.90;99.90;;;;;;4992549;28;20497;-68
2021/03/04 04:49:56;;;;;;;30.38;18.88;;;5.90;99.90;;;;;;4993152;28;20038;-68
2021/03/04 04:52:22;;;;;;;33.55;18.13;;;5.90;99.90;;;;;;4995642;28;20022;-70
2021/03/04 04:54:47;;;;;;;27.23;17.77;;;5.80;99.90;;;;;;4990314;28;20330;-68
2021/03/04 04:57:13;;;;;;;29.48;17.90;;;5.90;99.90;;;;;;5012054;28;20030;-69
2021/03/04 05:02:44;;;;;;;30.08;18.38;;;5.90;99.90;;;;;;5011939;28;20891;-70
2021/03/04 05:05:10;;;;;;;30.85;17.50;;;5.90;99.90;;;;;;5012039;28;20061;-69
2021/03/04 05:07:36;;;;;;;26.27;18.73;;;5.90;99.90;;;;;;5012121;28;20057;-68
2021/03/04 05:10:07;;;;;;;30.50;19.10;;;5.80;99.90;;;;;;5012232;28;20105;-69
2021/03/04 05:12:33;;;;;;;29.45;17.92;;;5.80;99.90;;;;;;5011986;28;20033;-70
2021/03/04 05:14:59;;;;;;;29.05;19.02;;;5.80;99.90;;;;;;5011597;28;20029;-68
2021/03/04 05:17:25;;;;;;;29.50;18.45;;;5.80;99.90;;;;;;5012004;28;20484;-68
2021/03/04 05:19:50;;;;;;;32.08;19.33;;;5.80;99.90;;;;;;5012308;28;20075;-70
2021/03/04 05:22:16;;;;;;;33.97;18.17;;;5.80;99.90;;;;;;5010938;28;20091;-69
2021/03/04 05:24:42;;;;;;;30.27;17.55;;;5.70;99.90;;;;;;5011111;28;20037;-70
2021/03/04 05:27:08;;;;;;;23.25;16.95;;;5.70;99.90;;;;;;5012094;28;20022;-70
2021/03/04 05:29:34;;;;;;;29.30;18.15;;;5.70;99.90;;;;;;5012187;28;20053;-69
2021/03/04 05:31:59;;;;;;;33.30;19.23;;;5.70;99.90;;;;;;5012508;28;20076;-68
2021/03/04 05:34:25;;;;;;;26.67;17.25;;;5.70;99.90;;;;;;5011183;28;20384;-69
2021/03/04 05:36:51;;;;;;;30.98;17.42;;;5.70;99.90;;;;;;5011274;28;20034;-69
2021/03/04 05:39:17;;;;;;;32.30;17.30;;;5.70;99.90;;;;;;5007299;28;20029;-69
2021/03/04 05:41:43;;;;;;;31.77;18.52;;;5.60;99.90;;;;;;4996234;28;20026;-69
2021/03/04 05:44:09;;;;;;;31.98;18.05;;;5.50;99.90;;;;;;4988379;28;20033;-70
2021/03/04 05:46:36;;;;;;;34.05;18.20;;;5.50;99.90;;;;;;4995500;28;20025;-70
2021/03/04 05:49:03;;;;;;;27.85;18.23;;;5.40;99.90;;;;;;4994597;28;20033;-70
2021/03/04 05:51:35;;;;;;;34.20;19.08;;;5.30;99.90;;;;;;4995565;28;20034;-76
2021/03/04 05:54:04;;;;;;;35.50;19.35;;;5.30;99.90;;;;;;4995381;28;20084;-71
2021/03/04 05:56:30;;;;;;;32.47;19.27;;;5.20;99.90;;;;;;4995287;28;20079;-73
2021/03/04 05:58:58;;;;;;;33.63;20.77;;;5.30;99.90;;;;;;4995844;28;20454;-72
2021/03/04 06:01:25;;;;;;;33.40;20.17;;;5.30;99.90;;;;;;4995872;28;20413;-72
2021/03/04 06:03:51;;;;;;;30.52;18.13;;;5.40;99.90;;;;;;4983019;28;20059;-72
2021/03/04 06:06:16;;;;;;;29.80;17.88;;;5.30;99.90;;;;;;4976222;28;20031;-72
2021/03/04 06:08:42;;;;;;;30.45;17.45;;;5.40;99.90;;;;;;4980150;28;20096;-71
2021/03/04 06:11:08;;;;;;;26.48;17.75;;;5.40;99.90;;;;;;5015701;28;20109;-73
2021/03/04 06:13:34;;;;;;;35.55;18.92;;;5.40;99.90;;;;;;4977684;28;20023;-72
2021/03/04 06:16:03;;;;;;;26.42;17.42;;;5.50;99.90;;;;;;4974844;28;20054;-73
2021/03/04 06:18:40;;;;;;;34.95;19.30;;;5.50;99.90;;;;;;5005735;28;20034;-73
2021/03/04 06:21:24;;;;;;;30.52;18.70;;;5.50;99.90;;;;;;5015174;28;20045;-69
2021/03/04 06:23:51;;;;;;;32.50;18.42;;;5.60;99.90;;;;;;4975408;28;20031;-68
2021/03/04 06:26:52;;;;;;;29.55;18.58;;;5.50;99.90;;;;;;4975669;28;20029;-69
2021/03/04 06:29:19;;;;;;;28.92;17.75;;;5.50;99.90;;;;;;4976142;28;20018;-70
2021/03/04 06:31:57;;;;;;;28.58;18.33;;;5.50;99.90;;;;;;4976663;28;20027;-71
2021/03/04 06:34:23;;;;;;;28.08;18.13;;;5.50;99.90;;;;;;4975833;28;20034;-73
2021/03/04 06:37:06;;;;;;;29.73;17.83;;;5.50;99.90;;;;;;4975612;28;20035;-73
2021/03/04 06:39:44;;;;;;;29.95;18.77;;;5.50;99.90;;;;;;4985490;28;20077;-72
2021/03/04 06:42:11;;;;;;;31.27;18.08;;;5.40;99.90;;;;;;4997134;28;20508;-73
2021/03/04 06:44:42;;;;;;;31.08;19.35;;;5.40;99.90;;;;;;5000721;28;20026;-71
2021/03/04 06:47:18;;;;;;;31.70;18.23;;;5.40;99.90;;;;;;5016269;28;20029;-74
2021/03/04 06:49:44;;;;;;;33.15;18.60;;;5.50;99.90;;;;;;5016532;28;20025;-71
2021/03/04 06:52:09;;;;;;;29.17;17.55;;;5.50;99.90;;;;;;5016407;28;20026;-74
2021/03/04 06:54:36;;;;;;;30.45;18.10;;;5.60;99.90;;;;;;5015446;28;20052;-72
2021/03/04 06:57:14;;;;;;;32.13;17.65;;;5.60;99.90;;;;;;5018410;28;20072;-74
2021/03/04 06:59:44;;;;;;;34.80;18.17;;;5.70;99.90;;;;;;5031256;28;20072;-74
2021/03/04 07:02:10;;;;;;;32.60;18.20;;;5.70;99.90;;;;;;5015287;28;20396;-74
2021/03/04 07:04:36;;;;;;;31.20;19.75;;;5.80;99.90;;;;;;5014348;28;20036;-74
2021/03/04 07:07:04;;;;;;;30.80;17.42;;;5.80;99.90;;;;;;5013706;28;20022;-73
2021/03/04 07:09:34;;;;;;;34.28;20.17;;;5.90;99.90;;;;;;5016815;28;20030;-72
2021/03/04 07:12:00;;;;;;;34.45;19.88;;;6.20;99.90;;;;;;5012342;28;20037;-71
2021/03/04 07:14:26;;;;;;;31.13;20.33;;;6.20;99.90;;;;;;5013270;28;20073;-69
2021/03/04 07:16:53;;;;;;;35.83;20.33;;;6.50;99.90;;;;;;5014339;28;20080;-71
2021/03/04 07:19:20;;;;;;;32.50;17.83;;;6.70;99.90;;;;;;5013965;28;20030;-69
2021/03/04 07:21:48;;;;;;;28.70;17.65;;;6.90;99.90;;;;;;5001479;28;20037;-69
2021/03/04 07:24:14;;;;;;;31.02;17.08;;;7.10;99.90;;;;;;4991309;28;20029;-69
2021/03/04 07:26:40;;;;;;;28.90;17.55;;;7.30;99.90;;;;;;4999437;28;20033;-68
2021/03/04 07:29:08;;;;;;;28.13;17.58;;;7.40;99.90;;;;;;4997811;28;20023;-71
2021/03/04 07:31:36;;;;;;;33.35;17.77;;;7.60;99.90;;;;;;4997966;28;20027;-72
2021/03/04 07:34:02;;;;;;;30.75;17.48;;;7.70;99.90;;;;;;5002066;28;20052;-72
2021/03/04 07:36:29;;;;;;;39.22;19.48;;;7.90;99.90;;;;;;5021106;28;20025;-71
2021/03/04 07:39:03;;;;;;;40.13;19.20;;;8.10;99.90;;;;;;5027675;28;20298;-70
2021/03/04 07:41:39;;;;;;;32.80;17.58;;;8.10;99.90;;;;;;5027669;28;20032;-73
2021/03/04 07:44:06;;;;;;;32.97;18.23;;;8.10;99.90;;;;;;5028340;28;20089;-72
2021/03/04 07:46:49;;;;;;;36.40;17.35;;;7.90;99.90;;;;;;5030106;28;20038;-71
2021/03/04 07:49:15;;;;;;;28.13;16.48;;;7.80;99.90;;;;;;5021138;28;20509;-71
2021/03/04 07:51:46;;;;;;;31.05;16.63;;;7.80;99.90;;;;;;5014075;28;20084;-72
2021/03/04 07:54:14;;;;;;;27.55;16.55;;;7.90;99.90;;;;;;5012113;28;20018;-73
2021/03/04 07:56:41;;;;;;;30.92;16.85;;;8.10;99.90;;;;;;5014136;28;20060;-73
2021/03/04 07:59:14;;;;;;;25.75;16.98;;;8.30;99.90;;;;;;5013920;28;20026;-74
2021/03/04 08:01:55;;;;;;;31.33;16.95;;;8.70;99.90;;;;;;5013134;28;20041;-73
2021/03/04 08:04:22;;;;;;;26.13;16.80;;;9.00;99.90;;;;;;5012554;28;20499;-72
2021/03/04 08:06:52;;;;;;;24.50;16.27;;;9.10;99.90;;;;;;5013800;28;20029;-73
2021/03/04 08:09:34;;;;;;;23.55;15.57;;;9.30;99.90;;;;;;5014248;28;20030;-73
2021/03/04 08:12:06;;;;;;;26.70;16.40;;;9.50;99.90;;;;;;5015660;28;20666;-73
2021/03/04 08:14:33;;;;;;;29.27;16.80;;;9.70;99.90;;;;;;5014291;28;20385;-70
2021/03/04 08:16:58;;;;;;;23.77;14.98;;;10.10;99.90;;;;;;4996346;28;20093;-72
2021/03/04 08:19:31;;;;;;;28.77;16.27;;;10.60;99.90;;;;;;4992887;28;20133;-72
2021/03/04 08:22:07;;;;;;;27.58;16.23;;;10.70;99.90;;;;;;4991795;28;20420;-74
2021/03/04 08:24:36;;;;;;;21.02;14.77;;;11.00;99.90;;;;;;4993311;28;20030;-74
2021/03/04 08:27:06;;;;;;;20.00;13.60;;;11.90;99.90;;;;;;4993736;28;20037;-72
2021/03/04 08:29:33;;;;;;;22.70;14.10;;;13.00;99.90;;;;;;4993357;28;20061;-72
2021/03/04 08:32:02;;;;;;;22.55;13.85;;;14.60;98.00;;;;;;4993778;28;20029;-71
2021/03/04 08:34:36;;;;;;;18.00;12.85;;;16.80;90.90;;;;;;4992658;28;20103;-71
2021/03/04 08:37:02;;;;;;;20.98;13.75;;;18.50;82.60;;;;;;4992629;28;20064;-71
2021/03/04 08:39:35;;;;;;;22.98;14.05;;;19.20;73.20;;;;;;4993204;28;20096;-74
2021/03/04 08:42:05;;;;;;;20.40;12.85;;;20.10;66.90;;;;;;4993261;28;20041;-72
2021/03/04 08:44:31;;;;;;;18.58;12.93;;;20.70;63.70;;;;;;4992717;28;20030;-72
2021/03/04 08:46:57;;;;;;;18.95;13.20;;;21.40;58.80;;;;;;4993104;28;20393;-73
2021/03/04 08:49:23;;;;;;;18.75;11.90;;;21.60;58.40;;;;;;4993135;28;20029;-73
2021/03/04 08:51:49;;;;;;;22.60;12.93;;;21.60;57.40;;;;;;5005677;28;20072;-71
2021/03/04 08:54:26;;;;;;;16.17;12.20;;;22.60;55.20;;;;;;5013043;28;20473;-72
2021/03/04 08:57:05;;;;;;;18.23;11.77;;;20.80;54.70;;;;;;5012912;28;20056;-71
2021/03/04 08:59:32;;;;;;;18.70;12.32;;;18.70;59.30;;;;;;4991948;28;20022;-70
2021/03/04 09:01:59;;;;;;;17.80;12.25;;;19.50;59.70;;;;;;4992848;28;20030;-71
2021/03/04 09:04:29;;;;;;;16.75;11.35;;;20.70;56.30;;;;;;4992098;28;20571;-71
2021/03/04 09:06:55;;;;;;;20.45;11.05;;;20.70;53.00;;;;;;4991328;28;20030;-75
2021/03/04 09:09:24;;;;;;;18.70;10.30;;;19.10;55.90;;;;;;4993121;28;20084;-73
2021/03/04 09:11:49;;;;;;;16.88;10.15;;;19.30;56.20;;;;;;4993361;28;20030;-72
2021/03/04 09:14:16;;;;;;;14.20;9.50;;;19.80;54.70;;;;;;4993058;28;20034;-71
2021/03/04 09:16:49;;;;;;;17.15;11.10;;;21.20;52.10;;;;;;4992276;28;20117;-72
2021/03/04 09:19:37;;;;;;;15.38;9.77;;;20.70;51.00;;;;;;4992341;28;20032;-73
2021/03/04 09:22:04;;;;;;;16.23;10.13;;;22.10;50.90;;;;;;5006659;28;20034;-72
2021/03/04 09:24:36;;;;;;;14.52;9.98;;;20.90;50.30;;;;;;5012035;28;20088;-72
2021/03/04 09:27:08;;;;;;;16.50;10.38;;;20.40;50.40;;;;;;5011669;28;20021;-71
2021/03/04 09:29:38;;;;;;;21.27;10.40;;;21.20;51.60;;;;;;5012101;28;20022;-70
2021/03/04 09:32:04;;;;;;;13.77;9.38;;;21.80;48.90;;;;;;5007997;28;20025;-72
2021/03/04 09:34:35;;;;;;;13.35;8.95;;;23.60;47.20;;;;;;4997579;28;20027;-72
2021/03/04 09:37:06;;;;;;;15.02;9.00;;;24.50;43.70;;;;;;4992082;28;20405;-72
2021/03/04 09:39:38;;;;;;;14.73;8.35;;;24.20;42.00;;;;;;4999305;28;20025;-71
2021/03/04 09:42:04;;;;;;;21.10;9.10;;;24.20;43.10;;;;;;5010624;28;20088;-73
2021/03/04 09:44:29;;;;;;;19.50;8.70;;;24.90;41.30;;;;;;5012024;28;20034;-72
2021/03/04 09:46:55;;;;;;;19.00;8.80;;;24.40;41.60;;;;;;5013220;28;20030;-72
2021/03/04 09:49:21;;;;;;;13.70;8.00;;;23.80;41.30;;;;;;5013367;28;20054;-73
2021/03/04 09:51:47;;;;;;;17.52;8.43;;;23.50;43.50;;;;;;5019038;28;20021;-70
2021/03/04 09:54:28;;;;;;;15.07;7.80;;;22.70;43.20;;;;;;5031815;28;20025;-69
2021/03/04 09:57:09;;;;;;;10.68;7.68;;;21.00;47.60;;;;;;5015816;28;20558;-71
2021/03/04 09:59:55;;;;;;;14.47;8.40;;;23.20;43.60;;;;;;5012427;28;20029;-71
2021/03/04 10:02:26;;;;;;;14.57;7.72;;;23.50;43.20;;;;;;5012022;28;20269;-72
2021/03/04 10:04:52;;;;;;;14.63;7.88;;;22.30;43.30;;;;;;5011266;28;20026;-70
2021/03/04 10:07:25;;;;;;;13.82;7.78;;;22.80;43.80;;;;;;5011212;28;20033;-70
2021/03/04 10:09:50;;;;;;;14.40;7.75;;;20.40;46.60;;;;;;5012280;28;20034;-72
2021/03/04 10:12:16;;;;;;;12.52;7.85;;;21.30;46.90;;;;;;5012706;28;20068;-71
2021/03/04 10:14:46;;;;;;;19.85;7.97;;;20.20;47.90;;;;;;5011799;28;20030;-71
2021/03/04 10:17:13;;;;;;;18.98;8.02;;;20.60;47.70;;;;;;5012549;28;20065;-73
2021/03/04 10:19:39;;;;;;;11.43;7.70;;;19.90;48.10;;;;;;5015342;28;20040;-76
2021/03/04 10:22:05;;;;;;;16.92;8.30;;;21.70;46.30;;;;;;5016436;28;20484;-74
2021/03/04 10:24:31;;;;;;;13.35;7.28;;;22.90;44.40;;;;;;4994649;28;20035;-71
2021/03/04 10:26:59;;;;;;;17.35;7.30;;;23.10;43.70;;;;;;4975555;28;20038;-71
2021/03/04 10:29:26;;;;;;;18.00;7.28;;;20.90;46.20;;;;;;4977255;28;20102;-71
2021/03/04 10:31:52;;;;;;;19.00;8.00;;;20.20;50.40;;;;;;4981446;28;20070;-74
2021/03/04 10:34:18;;;;;;;16.80;7.78;;;20.40;49.20;;;;;;4981539;28;20027;-75
2021/03/04 10:36:44;;;;;;;22.58;9.13;;;19.70;49.50;;;;;;4982623;28;20516;-73
2021/03/04 10:39:10;;;;;;;20.13;8.30;;;18.20;52.70;;;;;;4986869;28;20037;-74
2021/03/04 10:41:35;;;;;;;15.60;8.20;;;19.20;52.90;;;;;;4997061;28;20389;-74
2021/03/04 10:44:01;;;;;;;13.27;7.18;;;20.40;49.90;;;;;;4995584;28;20098;-75
2021/03/04 10:46:29;;;;;;;14.32;8.32;;;20.70;47.90;;;;;;4995751;28;20065;-74
2021/03/04 10:48:55;;;;;;;15.23;7.60;;;22.70;46.10;;;;;;4996797;28;20018;-71
2021/03/04 10:51:21;;;;;;;14.45;7.60;;;22.90;43.70;;;;;;4995514;28;20030;-73
2021/03/04 10:53:46;;;;;;;14.27;7.40;;;23.50;43.20;;;;;;4995067;28;20516;-74
2021/03/04 10:56:12;;;;;;;14.48;7.75;;;23.60;42.50;;;;;;4995541;28;20070;-71
2021/03/04 10:58:37;;;;;;;14.85;7.70;;;24.30;42.40;;;;;;4995753;28;20073;-73
2021/03/04 11:01:03;;;;;;;15.00;7.55;;;24.80;39.40;;;;;;4995004;28;20147;-74
2021/03/04 11:03:29;;;;;;;16.40;7.57;;;24.30;41.70;;;;;;4994580;28;20495;-74
2021/03/04 11:05:56;;;;;;;17.15;7.82;;;22.50;42.90;;;;;;4995454;28;20026;-71
2021/03/04 11:08:21;;;;;;;11.63;6.82;;;22.90;43.00;;;;;;4995101;28;20512;-73
2021/03/04 11:10:47;;;;;;;16.73;7.53;;;23.70;42.40;;;;;;5013359;28;20022;-73
2021/03/04 11:13:16;;;;;;;15.13;7.57;;;25.60;40.60;;;;;;5013378;28;20109;-72
2021/03/04 11:15:41;;;;;;;20.17;7.22;;;27.10;39.90;;;;;;5014449;28;20030;-74
2021/03/04 11:18:07;;;;;;;16.52;7.50;;;28.40;37.70;;;;;;5014692;28;20034;-72
2021/03/04 11:20:33;;;;;;;14.35;7.65;;;28.50;35.60;;;;;;5014564;28;20022;-72
2021/03/04 11:22:59;;;;;;;19.92;7.97;;;28.30;36.30;;;;;;5013858;28;20033;-72
2021/03/04 11:25:25;;;;;;;16.35;7.43;;;27.20;36.40;;;;;;5014880;28;20030;-72
2021/03/04 11:27:50;;;;;;;18.33;7.82;;;27.20;38.30;;;;;;5014218;28;20042;-72
2021/03/04 11:30:17;;;;;;;18.10;7.28;;;25.90;37.50;;;;;;5014581;28;20084;-73
2021/03/04 11:32:42;;;;;;;12.93;7.15;;;24.80;39.90;;;;;;5013621;28;20029;-73
2021/03/04 11:35:09;;;;;;;20.70;7.72;;;25.20;38.70;;;;;;5014091;28;20022;-73
2021/03/04 11:37:34;;;;;;;13.45;7.15;;;23.30;42.10;;;;;;5014069;28;20029;-75
2021/03/04 11:40:00;;;;;;;20.70;7.65;;;25.60;40.30;;;;;;5014370;28;20030;-74
2021/03/04 11:42:26;;;;;;;17.30;7.80;;;26.00;39.10;;;;;;5014454;28;20424;-73
2021/03/04 11:44:51;;;;;;;14.60;7.47;;;26.40;39.50;;;;;;5013443;28;20021;-74
2021/03/04 11:47:17;;;;;;;20.88;7.78;;;27.90;38.40;;;;;;5014265;28;20063;-73
2021/03/04 11:49:43;;;;;;;18.20;8.10;;;25.90;38.10;;;;;;5014756;28;20028;-74
2021/03/04 11:52:09;;;;;;;18.25;7.60;;;23.50;41.70;;;;;;5011476;28;20026;-77
2021/03/04 11:54:35;;;;;;;21.55;7.90;;;22.70;43.70;;;;;;4994487;28;20065;-76
2021/03/04 11:57:00;;;;;;;14.60;7.80;;;22.20;45.10;;;;;;4994948;28;20030;-76
2021/03/04 11:59:27;;;;;;;19.35;7.47;;;23.50;43.20;;;;;;4994184;28;20061;-71
2021/03/04 12:01:52;;;;;;;21.27;7.78;;;23.10;44.20;;;;;;4993842;28;20038;-69
2021/03/04 12:04:18;;;;;;;16.52;7.88;;;23.00;47.20;;;;;;4995101;28;20031;-73
2021/03/04 12:06:43;;;;;;;14.00;7.25;;;23.90;45.90;;;;;;4994460;28;20473;-73
2021/03/04 12:09:09;;;;;;;24.40;8.43;;;24.80;41.30;;;;;;4994520;28;20026;-74
2021/03/04 12:11:35;;;;;;;17.63;8.05;;;24.10;41.10;;;;;;4994637;28;20385;-74
2021/03/04 12:14:00;;;;;;;17.45;8.32;;;24.40;41.10;;;;;;4994589;28;20030;-75
2021/03/04 12:16:26;;;;;;;15.40;7.63;;;25.40;41.00;;;;;;4994825;28;20127;-74
2021/03/04 12:18:52;;;;;;;20.25;7.70;;;26.60;39.50;;;;;;4995792;28;20436;-74
2021/03/04 12:21:18;;;;;;;17.52;7.47;;;26.30;39.20;;;;;;4994261;28;20030;-74
2021/03/04 12:23:44;;;;;;;20.35;8.18;;;25.40;40.50;;;;;;4992499;28;20083;-75
2021/03/04 12:26:10;;;;;;;19.42;8.90;;;24.80;41.10;;;;;;4994246;28;20425;-73
2021/03/04 12:28:35;;;;;;;16.88;8.50;;;23.20;43.90;;;;;;4994713;28;20030;-73
2021/03/04 12:31:01;;;;;;;17.48;8.32;;;23.90;43.70;;;;;;4994723;28;20485;-74
2021/03/04 12:33:27;;;;;;;28.77;9.15;;;23.50;42.90;;;;;;4993571;28;20039;-73
2021/03/04 12:35:52;;;;;;;17.50;8.32;;;23.20;44.10;;;;;;4993899;28;20030;-73
2021/03/04 12:38:18;;;;;;;18.33;6.93;;;22.80;44.30;;;;;;4993963;28;20027;-68
2021/03/04 12:40:44;;;;;;;18.25;6.95;;;23.30;44.10;;;;;;4988000;28;20026;-72
2021/03/04 12:43:09;;;;;;;17.90;7.60;;;23.90;42.80;;;;;;4998898;28;20409;-70